createdAt,value
2019-05-16T00:01:34.427Z,0.80
2019-05-16T00:04:00.935Z,0.70
2019-05-16T00:06:28.398Z,0.60
2019-05-16T00:08:55.054Z,0.67
2019-05-16T00:11:21.435Z,0.80
2019-05-16T00:13:48.883Z,0.50
2019-05-16T00:16:15.591Z,0.70
2019-05-16T00:18:41.999Z,0.60
2019-05-16T00:21:08.811Z,0.80
2019-05-16T00:23:35.299Z,1.00
2019-05-16T00:26:01.711Z,0.80
2019-05-16T00:28:28.571Z,1.47
2019-05-16T00:30:55.398Z,0.60
2019-05-16T00:33:21.787Z,0.77
2019-05-16T00:36:00.963Z,0.70
2019-05-16T00:38:18.341Z,0.70
2019-05-16T00:40:44.818Z,0.70
2019-05-16T00:43:11.223Z,0.60
2019-05-16T00:45:38.548Z,0.70
2019-05-16T00:48:05.223Z,0.97
2019-05-16T00:50:31.728Z,0.70
2019-05-16T00:52:59.007Z,0.80
2019-05-16T00:55:28.274Z,1.30
2019-05-16T00:57:54.806Z,0.90
2019-05-16T01:00:23.168Z,0.70
2019-05-16T01:02:49.656Z,0.73
2019-05-16T01:05:16.108Z,0.90
2019-05-16T01:07:42.496Z,0.80
2019-05-16T01:10:09.348Z,0.83
2019-05-16T01:12:35.803Z,1.07
2019-05-16T01:15:03.627Z,0.87
2019-05-16T01:17:30.020Z,0.87
2019-05-16T01:19:57.863Z,1.07
2019-05-16T01:22:24.532Z,0.83
2019-05-16T01:24:50.910Z,0.80
2019-05-16T01:27:18.454Z,0.63
2019-05-16T01:29:45.127Z,0.90
2019-05-16T01:32:11.699Z,0.53
2019-05-16T01:34:38.103Z,0.67
2019-05-16T01:37:04.535Z,0.93
2019-05-16T01:39:31.067Z,1.10
2019-05-16T01:41:58.681Z,0.90
2019-05-16T01:44:25.291Z,1.20
2019-05-16T01:46:51.715Z,1.00
2019-05-16T01:49:18.767Z,0.80
2019-05-16T01:51:45.414Z,0.87
2019-05-16T01:54:11.809Z,0.57
2019-05-16T01:56:38.803Z,0.73
2019-05-16T01:59:05.417Z,0.73
2019-05-16T02:01:31.936Z,3.43
2019-05-16T02:03:58.740Z,0.90
2019-05-16T02:06:25.473Z,1.43
2019-05-16T02:09:11.801Z,0.60
2019-05-16T02:11:38.819Z,0.70
2019-05-16T02:14:05.386Z,0.70
2019-05-16T02:16:31.813Z,0.60
2019-05-16T02:18:58.848Z,0.80
2019-05-16T02:21:25.522Z,0.80
2019-05-16T02:23:51.911Z,0.80
2019-05-16T02:26:19.094Z,0.83
2019-05-16T02:28:45.910Z,0.93
2019-05-16T02:31:15.466Z,0.77
2019-05-16T02:33:40.875Z,0.87
2019-05-16T02:36:10.678Z,1.10
2019-05-16T02:38:35.628Z,0.97
2019-05-16T02:41:21.942Z,1.17
2019-05-16T02:43:50.777Z,1.07
2019-05-16T02:46:16.718Z,0.90
2019-05-16T02:48:43.120Z,0.87
2019-05-16T02:51:11.020Z,1.00
2019-05-16T02:53:37.823Z,1.00
2019-05-16T02:56:04.202Z,0.80
2019-05-16T02:58:30.903Z,1.03
2019-05-16T03:00:57.429Z,0.90
2019-05-16T03:03:23.946Z,1.10
2019-05-16T03:08:31.792Z,1.10
2019-05-16T03:10:56.727Z,1.23
2019-05-16T03:13:24.654Z,1.30
2019-05-16T03:15:51.187Z,0.97
2019-05-16T03:18:21.429Z,1.20
2019-05-16T03:20:50.970Z,1.20
2019-05-16T03:23:17.688Z,1.20
2019-05-16T03:26:03.960Z,1.17
2019-05-16T03:28:30.777Z,1.23
2019-05-16T03:30:57.364Z,1.00
2019-05-16T03:33:32.266Z,1.00
2019-05-16T03:35:54.459Z,1.00
2019-05-16T03:38:41.345Z,1.27
2019-05-16T03:41:11.255Z,1.17
2019-05-16T03:43:36.362Z,1.00
2019-05-16T03:46:02.923Z,0.90
2019-05-16T03:48:31.582Z,1.33
2019-05-16T03:51:00.648Z,1.20
2019-05-16T03:53:26.081Z,1.50
2019-05-16T03:55:52.472Z,1.13
2019-05-16T03:58:22.574Z,1.10
2019-05-16T04:00:52.859Z,1.23
2019-05-16T04:03:21.260Z,1.30
2019-05-16T04:06:11.537Z,1.50
2019-05-16T04:08:36.316Z,1.20
2019-05-16T04:11:02.784Z,1.30
2019-05-16T04:13:31.428Z,1.60
2019-05-16T04:16:00.952Z,1.53
2019-05-16T04:18:26.195Z,1.60
2019-05-16T04:20:52.980Z,1.43
2019-05-16T04:23:20.593Z,1.30
2019-05-16T04:25:47.218Z,1.30
2019-05-16T04:28:13.592Z,1.30
2019-05-16T04:30:41.516Z,1.53
2019-05-16T04:33:10.855Z,1.07
2019-05-16T04:35:36.444Z,1.33
2019-05-16T04:38:02.922Z,1.37
2019-05-16T04:40:31.161Z,1.60
2019-05-16T04:43:01.009Z,1.47
2019-05-16T04:45:26.175Z,1.57
2019-05-16T04:47:52.547Z,1.50
2019-05-16T04:50:22.052Z,1.87
2019-05-16T04:52:51.431Z,1.83
2019-05-16T04:55:16.775Z,2.20
2019-05-16T04:57:43.155Z,1.50
2019-05-16T05:00:11.301Z,1.63
2019-05-16T05:02:41.236Z,1.80
2019-05-16T05:05:06.551Z,1.33
2019-05-16T05:07:32.927Z,2.05
2019-05-16T05:10:00.637Z,1.73
2019-05-16T05:12:27.376Z,2.00
2019-05-16T05:14:53.774Z,1.50
2019-05-16T05:17:21.104Z,1.93
2019-05-16T05:19:50.453Z,1.67
2019-05-16T05:22:16.092Z,1.57
2019-05-16T05:24:42.478Z,1.90
2019-05-16T05:27:10.441Z,1.83
2019-05-16T05:29:39.639Z,1.90
2019-05-16T05:32:05.619Z,1.97
2019-05-16T05:34:32.227Z,1.63
2019-05-16T05:37:00.268Z,1.53
2019-05-16T05:39:26.844Z,1.77
2019-05-16T05:41:53.287Z,1.90
2019-05-16T05:44:20.309Z,1.77
2019-05-16T05:46:47.048Z,1.50
2019-05-16T05:49:13.415Z,1.97
2019-05-16T05:51:40.607Z,1.73
2019-05-16T05:54:07.314Z,2.20
2019-05-16T05:56:33.717Z,2.10
2019-05-16T05:59:01.574Z,2.20
2019-05-16T06:01:31.244Z,2.83
2019-05-16T06:03:56.624Z,2.40
2019-05-16T06:06:23.054Z,2.67
2019-05-16T06:08:50.189Z,2.80
2019-05-16T06:11:16.902Z,2.53
2019-05-16T06:13:43.349Z,3.00
2019-05-16T06:16:10.868Z,2.63
2019-05-16T06:18:39.573Z,2.50
2019-05-16T06:21:05.762Z,2.67
2019-05-16T06:23:32.175Z,1.97
2019-05-16T06:26:00.409Z,2.03
2019-05-16T06:28:26.886Z,2.47
2019-05-16T06:30:53.300Z,2.00
2019-05-16T06:33:20.108Z,2.27
2019-05-16T06:35:46.787Z,1.90
2019-05-16T06:38:13.203Z,1.53
2019-05-16T06:40:40.224Z,1.90
2019-05-16T06:43:06.686Z,1.83
2019-05-16T06:45:33.071Z,1.77
2019-05-16T06:48:00.767Z,1.67
2019-05-16T06:50:29.638Z,1.63
2019-05-16T06:52:55.615Z,1.57
2019-05-16T06:55:22.007Z,1.37
2019-05-16T06:57:50.323Z,1.70
2019-05-16T07:00:36.595Z,1.87
2019-05-16T07:03:03.119Z,1.50
2019-05-16T07:05:29.925Z,1.50
2019-05-16T07:07:56.527Z,1.53
2019-05-16T07:10:22.908Z,1.43
2019-05-16T07:12:50.353Z,1.83
2019-05-16T07:15:17.951Z,1.50
2019-05-16T07:17:44.979Z,1.77
2019-05-16T07:20:11.603Z,1.90
2019-05-16T07:22:40.412Z,1.93
2019-05-16T07:25:06.718Z,1.53
2019-05-16T07:27:33.243Z,1.80
2019-05-16T07:30:01.218Z,2.27
2019-05-16T07:32:30.264Z,2.13
2019-05-16T07:34:56.255Z,2.00
2019-05-16T07:37:22.638Z,1.87
2019-05-16T07:39:51.064Z,1.40
2019-05-16T07:42:19.946Z,1.17
2019-05-16T07:44:45.678Z,1.33
2019-05-16T07:47:12.083Z,1.30
2019-05-16T07:49:40.602Z,1.20
2019-05-16T07:52:06.784Z,1.20
2019-05-16T07:54:34.536Z,1.45
2019-05-16T07:57:12.163Z,0.93
2019-05-16T07:59:29.937Z,1.40
2019-05-16T08:01:56.604Z,0.80
2019-05-16T08:04:23.027Z,1.40
2019-05-16T08:06:50.206Z,1.37
2019-05-16T08:09:16.830Z,1.40
2019-05-16T08:11:43.251Z,1.20
2019-05-16T08:14:10.294Z,1.60
2019-05-16T08:16:37.054Z,1.97
2019-05-16T08:19:03.444Z,1.13
2019-05-16T08:21:30.896Z,1.40
2019-05-16T08:23:57.648Z,1.43
2019-05-16T08:26:24.089Z,1.30
2019-05-16T08:28:50.661Z,1.40
2019-05-16T08:31:20.749Z,1.40
2019-05-16T08:33:45.680Z,1.30
2019-05-16T08:36:12.261Z,1.40
2019-05-16T08:38:42.980Z,1.70
2019-05-16T08:41:12.865Z,1.20
2019-05-16T08:43:35.323Z,1.10
2019-05-16T08:46:01.800Z,1.27
2019-05-16T08:48:31.427Z,1.40
2019-05-16T08:50:56.545Z,0.97
2019-05-16T08:53:23.003Z,0.97
2019-05-16T08:55:50.618Z,1.10
2019-05-16T08:58:17.316Z,1.43
2019-05-16T09:00:43.741Z,1.40
2019-05-16T09:03:12.317Z,1.40
2019-05-16T09:05:42.643Z,1.10
2019-05-16T09:08:06.846Z,1.60
2019-05-16T09:10:49.212Z,1.43
2019-05-16T09:13:02.060Z,1.30
2019-05-16T09:15:28.470Z,1.30
2019-05-16T09:17:57.935Z,1.07
2019-05-16T09:20:23.254Z,0.80
2019-05-16T09:22:49.680Z,1.37
2019-05-16T09:25:18.566Z,0.97
2019-05-16T09:27:46.901Z,0.70
2019-05-16T09:30:13.179Z,1.10
2019-05-16T09:32:42.626Z,0.80
2019-05-16T09:35:08.594Z,1.00
2019-05-16T09:37:37.377Z,0.80
2019-05-16T09:40:06.350Z,1.00
2019-05-16T09:42:32.574Z,0.90
2019-05-16T09:44:58.962Z,0.70
2019-05-16T09:47:28.051Z,1.10
2019-05-16T09:49:53.690Z,1.10
2019-05-16T09:52:20.106Z,0.90
2019-05-16T09:54:46.869Z,0.80
2019-05-16T09:57:13.623Z,1.10
2019-05-16T09:59:40.002Z,0.90
2019-05-16T10:02:07.289Z,1.10
2019-05-16T10:04:36.624Z,1.20
2019-05-16T10:07:02.626Z,1.10
2019-05-16T10:09:40.752Z,1.00
2019-05-16T10:12:08.325Z,1.07
2019-05-16T10:14:26.902Z,0.83
2019-05-16T10:16:53.491Z,1.00
2019-05-16T10:19:19.877Z,1.10
2019-05-16T10:21:46.319Z,1.03
2019-05-16T10:24:12.703Z,1.13
2019-05-16T10:26:39.151Z,1.27
2019-05-16T10:29:10.480Z,1.10
2019-05-16T10:31:45.024Z,1.10
2019-05-16T10:34:02.250Z,1.03
2019-05-16T10:36:28.843Z,1.20
2019-05-16T10:38:58.810Z,1.37
2019-05-16T10:41:23.643Z,0.97
2019-05-16T10:43:50.058Z,0.97
2019-05-16T10:46:37.633Z,1.03
2019-05-16T10:49:04.343Z,0.97
2019-05-16T10:51:30.820Z,0.93
2019-05-16T10:54:09.050Z,1.10
2019-05-16T10:56:25.989Z,1.37
2019-05-16T10:59:26.065Z,1.33
2019-05-16T11:01:27.513Z,1.07
2019-05-16T11:03:49.360Z,0.83
2019-05-16T11:06:25.368Z,1.03
2019-05-16T11:08:46.621Z,1.10
2019-05-16T11:11:12.696Z,1.03
2019-05-16T11:13:39.142Z,1.10
2019-05-16T11:16:27.549Z,1.33
2019-05-16T11:18:53.734Z,1.20
2019-05-16T11:21:20.185Z,1.43
2019-05-16T11:23:47.122Z,1.13
2019-05-16T11:26:13.771Z,1.10
2019-05-16T11:28:40.186Z,1.30
2019-05-16T11:31:07.599Z,1.40
2019-05-16T11:33:36.840Z,0.83
2019-05-16T11:36:02.718Z,1.40
2019-05-16T11:38:29.132Z,1.03
2019-05-16T11:40:56.875Z,0.97
2019-05-16T11:43:23.422Z,0.97
2019-05-16T11:45:49.835Z,1.20
2019-05-16T11:48:17.084Z,1.10
2019-05-16T11:50:44.051Z,1.20
2019-05-16T11:53:10.429Z,0.90
2019-05-16T11:55:50.348Z,1.30
2019-05-16T11:58:06.777Z,1.00
2019-05-16T12:00:33.478Z,1.40
2019-05-16T12:02:59.853Z,1.07
2019-05-16T12:05:27.171Z,1.40
2019-05-16T12:07:56.959Z,1.30
2019-05-16T12:10:22.175Z,1.30
2019-05-16T12:12:48.586Z,0.90
2019-05-16T12:15:19.729Z,1.10
2019-05-16T12:17:43.715Z,0.90
2019-05-16T12:20:10.227Z,0.97
2019-05-16T12:22:37.672Z,0.90
2019-05-16T12:25:07.890Z,1.10
2019-05-16T12:27:33.781Z,1.10
2019-05-16T12:30:00.922Z,1.27
2019-05-16T12:32:27.705Z,1.10
2019-05-16T12:34:54.311Z,0.90
2019-05-16T12:37:20.683Z,1.13
2019-05-16T12:39:47.205Z,1.33
2019-05-16T12:42:13.599Z,1.33
2019-05-16T12:44:40.014Z,1.50
2019-05-16T12:47:07.574Z,1.50
2019-05-16T12:49:34.314Z,1.00
2019-05-16T12:52:01.111Z,1.20
2019-05-16T12:54:27.679Z,1.30
2019-05-16T12:56:57.836Z,1.13
2019-05-16T12:59:22.685Z,1.40
2019-05-16T13:01:49.111Z,1.40
2019-05-16T13:04:18.909Z,1.47
2019-05-16T13:06:43.894Z,1.33
2019-05-16T13:09:10.447Z,1.50
2019-05-16T13:11:37.690Z,1.67
2019-05-16T13:14:09.897Z,1.00
2019-05-16T13:16:32.924Z,1.30
2019-05-16T13:18:59.311Z,1.97
2019-05-16T13:21:27.574Z,1.10
2019-05-16T13:23:54.041Z,1.20
2019-05-16T13:26:20.505Z,2.17
2019-05-16T13:28:47.591Z,2.00
2019-05-16T13:31:16.937Z,2.10
2019-05-16T13:33:42.723Z,2.10
2019-05-16T13:36:09.234Z,1.93
2019-05-16T13:38:35.645Z,1.10
2019-05-16T13:41:02.085Z,1.03
2019-05-16T13:43:28.435Z,0.97
2019-05-16T13:45:57.349Z,1.00
2019-05-16T13:48:23.171Z,1.20
2019-05-16T13:50:49.634Z,1.00
2019-05-16T13:53:16.346Z,1.20
2019-05-16T13:55:43.127Z,1.10
2019-05-16T13:58:09.506Z,1.17
2019-05-16T14:00:37.553Z,1.50
2019-05-16T14:03:04.228Z,1.60
2019-05-16T14:05:30.660Z,1.13
2019-05-16T14:07:57.332Z,0.90
2019-05-16T14:10:23.922Z,0.97
2019-05-16T14:12:50.486Z,1.33
2019-05-16T14:15:18.133Z,0.90
2019-05-16T14:17:44.799Z,1.10
2019-05-16T14:20:14.964Z,1.40
2019-05-16T14:22:40.847Z,3.70
2019-05-16T14:25:07.558Z,1.20
2019-05-16T14:27:33.967Z,1.53
2019-05-16T14:30:00.364Z,1.63
2019-05-16T14:32:26.869Z,1.10
2019-05-16T14:34:53.245Z,1.10
2019-05-16T14:37:19.680Z,1.63
2019-05-16T14:39:48.705Z,0.90
2019-05-16T14:42:17.620Z,1.30
2019-05-16T14:44:59.657Z,1.07
2019-05-16T14:47:11.012Z,0.70
2019-05-16T14:49:37.561Z,0.87
2019-05-16T14:52:04.079Z,0.80
2019-05-16T14:54:30.504Z,1.27
2019-05-16T14:57:01.187Z,1.00
2019-05-16T14:59:28.840Z,0.80
2019-05-16T15:01:53.499Z,1.73
2019-05-16T15:04:19.914Z,0.73
2019-05-16T15:06:46.992Z,1.20
2019-05-16T15:09:16.985Z,1.73
2019-05-16T15:11:41.730Z,1.10
2019-05-16T15:14:07.828Z,0.80
2019-05-16T15:16:33.835Z,0.80
2019-05-16T15:18:59.880Z,0.88
2019-05-16T15:21:25.903Z,1.27
2019-05-16T15:23:51.961Z,1.20
2019-05-16T15:26:18.361Z,0.80
2019-05-16T15:28:50.702Z,0.90
2019-05-16T15:31:12.519Z,1.10
2019-05-16T15:33:38.566Z,1.50
2019-05-16T15:36:04.680Z,1.27
2019-05-16T15:38:30.729Z,1.50
2019-05-16T15:41:00.263Z,1.32
2019-05-16T15:43:27.327Z,1.65
2019-05-16T15:45:53.336Z,1.90
2019-05-16T15:48:19.508Z,1.70
2019-05-16T15:50:47.896Z,2.45
2019-05-16T15:53:17.706Z,1.80
2019-05-16T15:55:47.023Z,1.75
2019-05-16T15:58:18.071Z,1.92
2019-05-16T16:00:52.608Z,2.00
2019-05-16T16:03:27.436Z,2.10
2019-05-16T16:08:50.082Z,2.00
2019-05-16T16:11:17.317Z,2.22
2019-05-16T16:13:49.978Z,2.00
2019-05-16T16:16:23.855Z,1.70
2019-05-16T16:18:49.806Z,2.08
2019-05-16T16:21:16.764Z,1.85
2019-05-16T16:23:53.681Z,1.92
2019-05-16T16:26:19.814Z,1.70
2019-05-16T16:28:45.816Z,1.55
2019-05-16T16:31:12.078Z,1.90
2019-05-16T16:33:38.095Z,1.80
2019-05-16T16:36:04.244Z,1.22
2019-05-16T16:38:32.380Z,3.15
2019-05-16T16:40:58.469Z,1.40
2019-05-16T16:43:24.557Z,1.12
2019-05-16T16:46:04.093Z,1.02
2019-05-16T16:48:18.549Z,1.20
2019-05-16T16:50:44.559Z,1.20
2019-05-16T16:53:10.721Z,1.67
2019-05-16T16:55:38.835Z,7.10
2019-05-16T16:58:04.882Z,1.57
2019-05-16T17:00:30.937Z,1.20
2019-05-16T17:03:03.245Z,1.13
2019-05-16T17:05:26.561Z,0.97
2019-05-16T17:07:52.859Z,1.30
2019-05-16T17:10:19.074Z,1.17
2019-05-16T17:12:47.033Z,1.20
2019-05-16T17:15:16.962Z,1.23
2019-05-16T17:17:42.624Z,0.80
2019-05-16T17:20:09.353Z,0.90
2019-05-16T17:22:37.365Z,1.03
2019-05-16T17:25:07.200Z,1.13
2019-05-16T17:27:33.388Z,1.23
2019-05-16T17:30:00.841Z,1.07
2019-05-16T17:32:27.514Z,1.17
2019-05-16T17:34:53.625Z,1.00
2019-05-16T17:37:19.670Z,1.13
2019-05-16T17:39:47.455Z,1.03
2019-05-16T17:42:13.615Z,1.33
2019-05-16T17:44:39.624Z,1.00
2019-05-16T17:47:07.150Z,1.20
2019-05-16T17:49:33.282Z,1.10
2019-05-16T17:52:00.073Z,1.47
2019-05-16T17:54:26.760Z,1.10
2019-05-16T17:56:53.030Z,1.27
2019-05-16T17:59:19.039Z,1.03
2019-05-16T18:01:46.295Z,1.13
2019-05-16T18:04:12.419Z,1.20
2019-05-16T18:06:38.518Z,1.70
2019-05-16T18:09:06.898Z,8.27
2019-05-16T18:11:32.921Z,1.25
2019-05-16T18:13:59.027Z,1.60
2019-05-16T18:16:25.043Z,1.10
2019-05-16T18:18:51.107Z,1.20
2019-05-16T18:21:17.158Z,1.27
2019-05-16T18:23:43.363Z,1.20
2019-05-16T18:28:07.815Z,1.13
2019-05-16T18:30:36.378Z,1.17
2019-05-16T18:33:02.138Z,1.10
2019-05-16T18:35:28.194Z,1.17
2019-05-16T18:37:54.214Z,1.20
2019-05-16T18:40:21.050Z,1.57
2019-05-16T18:42:47.652Z,1.37
2019-05-16T18:45:16.331Z,1.40
2019-05-16T18:47:42.246Z,1.63
2019-05-16T18:50:08.806Z,1.47
2019-05-16T18:52:37.477Z,1.30
2019-05-16T18:55:08.539Z,1.43
2019-05-16T18:57:34.769Z,1.40
2019-05-16T19:00:01.475Z,1.17
2019-05-16T19:02:27.738Z,1.30
2019-05-16T19:04:53.887Z,1.57
2019-05-16T19:07:19.886Z,1.20
2019-05-16T19:09:45.962Z,1.83
2019-05-16T19:12:11.971Z,1.20
2019-05-16T19:14:38.166Z,1.60
2019-05-16T19:17:17.335Z,1.63
2019-05-16T19:19:32.155Z,1.57
2019-05-16T19:21:59.574Z,1.20
2019-05-16T19:24:27.813Z,1.30
2019-05-16T19:26:54.413Z,1.63
2019-05-16T19:29:21.121Z,1.50
2019-05-16T19:31:50.278Z,1.53
2019-05-16T19:34:16.257Z,1.60
2019-05-16T19:36:43.119Z,1.43
2019-05-16T19:39:09.673Z,1.57
2019-05-16T19:41:38.611Z,1.30
2019-05-16T19:44:06.644Z,1.37
2019-05-16T19:46:32.628Z,1.30
2019-05-16T19:48:58.651Z,1.00
2019-05-16T19:51:26.782Z,1.60
2019-05-16T19:53:52.615Z,1.40
2019-05-16T19:56:18.675Z,1.47
2019-05-16T19:58:46.645Z,1.30
2019-05-16T20:01:12.626Z,1.20
2019-05-16T20:03:38.650Z,1.63
2019-05-16T20:06:04.689Z,1.47
2019-05-16T20:08:30.703Z,1.43
2019-05-16T20:10:56.823Z,1.57
2019-05-16T20:13:22.871Z,1.27
2019-05-16T20:15:48.936Z,1.63
2019-05-16T20:18:18.178Z,2.65
2019-05-16T20:20:43.968Z,1.33
2019-05-16T20:23:09.977Z,1.40
2019-05-16T20:25:36.522Z,1.87
2019-05-16T20:28:02.955Z,1.80
2019-05-16T20:30:29.000Z,1.43
2019-05-16T20:32:55.031Z,1.30
2019-05-16T20:35:22.151Z,1.60
2019-05-16T20:37:48.163Z,1.63
2019-05-16T20:40:17.130Z,1.33
2019-05-16T20:42:42.542Z,1.50
2019-05-16T20:45:08.994Z,1.63
2019-05-16T20:47:35.070Z,2.13
2019-05-16T20:50:01.761Z,1.70
2019-05-16T20:52:27.783Z,2.07
2019-05-16T20:54:53.865Z,1.87
2019-05-16T20:57:19.896Z,1.83
2019-05-16T20:59:46.316Z,2.07
2019-05-16T21:02:16.250Z,1.90
2019-05-16T21:04:41.849Z,1.73
2019-05-16T21:07:11.101Z,1.63
2019-05-16T21:09:36.907Z,2.10
2019-05-16T21:12:03.304Z,1.77
2019-05-16T21:14:29.404Z,2.20
2019-05-16T21:16:57.735Z,2.37
2019-05-16T21:19:23.385Z,2.80
2019-05-16T21:21:49.439Z,2.40
2019-05-16T21:24:15.834Z,2.53
2019-05-16T21:26:41.913Z,2.40
2019-05-16T21:29:07.949Z,2.50
2019-05-16T21:31:36.757Z,2.03
2019-05-16T21:34:02.680Z,2.27
2019-05-16T21:36:28.746Z,2.73
2019-05-16T21:38:54.775Z,2.07
2019-05-16T21:41:20.876Z,2.80
2019-05-16T21:43:47.078Z,2.60
2019-05-16T21:46:13.418Z,3.07
2019-05-16T21:48:39.442Z,2.20
2019-05-16T21:51:07.674Z,2.67
2019-05-16T21:53:33.470Z,2.80
2019-05-16T21:55:59.546Z,2.60
2019-05-16T21:58:26.671Z,2.87
2019-05-16T22:00:56.718Z,2.53
2019-05-16T22:03:22.940Z,3.00
2019-05-16T22:05:48.989Z,2.63
2019-05-16T22:08:16.773Z,2.57
2019-05-16T22:10:43.086Z,2.53
2019-05-16T22:13:09.152Z,2.53
2019-05-16T22:15:36.771Z,2.00
2019-05-16T22:18:02.989Z,2.27
2019-05-16T22:20:29.045Z,2.57
2019-05-16T22:22:57.261Z,2.47
2019-05-16T22:25:23.070Z,2.87
2019-05-16T22:28:09.009Z,2.33
2019-05-16T22:30:36.578Z,2.47
2019-05-16T22:33:02.983Z,2.97
2019-05-16T22:35:28.995Z,2.63
2019-05-16T22:38:16.750Z,2.83
2019-05-16T22:40:42.835Z,2.83
2019-05-16T22:43:10.345Z,2.53
2019-05-16T22:45:37.345Z,2.40
2019-05-16T22:48:06.774Z,2.53
2019-05-16T22:50:31.967Z,2.20
2019-05-16T22:52:58.018Z,2.50
2019-05-16T22:55:26.268Z,2.50
2019-05-16T22:57:52.015Z,2.80
2019-05-16T23:00:22.955Z,2.70
2019-05-16T23:02:49.023Z,2.67
2019-05-16T23:05:16.852Z,2.57
2019-05-16T23:07:42.945Z,2.60
2019-05-16T23:10:09.184Z,2.87
2019-05-16T23:12:37.233Z,2.50
2019-05-16T23:15:06.430Z,3.10
2019-05-16T23:17:31.943Z,3.40
2019-05-16T23:19:57.995Z,3.23
2019-05-16T23:22:24.008Z,3.37
2019-05-16T23:24:50.062Z,3.97
2019-05-16T23:27:16.085Z,3.80
2019-05-16T23:29:42.119Z,3.20
2019-05-16T23:32:08.130Z,3.43
2019-05-16T23:34:34.171Z,3.80
2019-05-16T23:37:00.170Z,4.92
2019-05-16T23:39:26.316Z,3.80
2019-05-16T23:41:52.523Z,4.10
2019-05-16T23:44:18.567Z,3.50
2019-05-16T23:46:46.933Z,3.77
2019-05-16T23:49:12.487Z,3.67
2019-05-16T23:51:38.535Z,3.77
2019-05-16T23:54:06.668Z,3.93
2019-05-16T23:56:32.579Z,3.87
2019-05-16T23:58:58.588Z,3.67
